Terminal Aerodrome Forecast
Issued by NWS

Current Version | Previous Version | Text Only | Print | Product List | Glossary On
Versions: 1 2 3 4 5 6 7 8 9 10 11 12 13 14 15 16 17 18 19 20
000
FTUS46 KEKA 192346
TAFUKI
TAF
KUKI 192346Z 2000/2024 32003KT P6SM BKN040
     FM200900 VRB03KT P6SM VCSH SCT020 BKN040
     FM201500 15003KT 4SM -RA BR SCT020 OVC040=

USA.gov is the U.S. government's official web portal to all federal, state and local government web resources and services.